createdAt,value
2017-11-29T00:02:16.476Z,22.60
2017-11-29T00:04:50.041Z,23.70
2017-11-29T00:07:24.022Z,22.87
2017-11-29T00:09:58.619Z,28.37
2017-11-29T00:12:32.243Z,27.83
2017-11-29T00:15:06.120Z,22.87
2017-11-29T00:17:40.675Z,23.13
2017-11-29T00:20:15.818Z,27.80
2017-11-29T00:22:49.512Z,27.33
2017-11-29T00:25:23.169Z,20.30
2017-11-29T00:27:58.270Z,19.63
2017-11-29T00:30:34.084Z,29.23
2017-11-29T00:33:09.534Z,23.97
2017-11-29T00:35:43.551Z,19.37
2017-11-29T00:38:17.312Z,21.43
2017-11-29T00:40:51.776Z,26.00
2017-11-29T00:43:25.987Z,19.60
2017-11-29T00:46:01.049Z,20.70
2017-11-29T00:48:35.570Z,20.10
2017-11-29T00:51:10.384Z,24.53
2017-11-29T00:53:45.106Z,19.23
2017-11-29T00:56:20.045Z,23.43
2017-11-29T00:58:54.587Z,23.40
2017-11-29T01:01:28.988Z,23.73
2017-11-29T01:04:04.231Z,22.20
2017-11-29T01:06:38.548Z,26.43
2017-11-29T01:09:13.775Z,20.00
2017-11-29T01:11:48.621Z,17.83
2017-11-29T01:14:22.558Z,22.30
2017-11-29T01:16:57.209Z,26.60
2017-11-29T01:19:31.318Z,20.23
2017-11-29T01:22:06.275Z,29.57
2017-11-29T01:24:40.123Z,30.47
2017-11-29T01:27:14.021Z,24.23
2017-11-29T01:29:47.602Z,24.97
2017-11-29T01:32:22.244Z,24.07
2017-11-29T01:34:56.300Z,28.10
2017-11-29T01:37:29.966Z,25.03
2017-11-29T01:40:03.578Z,26.20
2017-11-29T01:42:37.791Z,23.33
2017-11-29T01:45:13.100Z,30.40
2017-11-29T01:47:46.984Z,23.83
2017-11-29T01:50:20.828Z,29.17
2017-11-29T01:52:55.064Z,22.47
2017-11-29T01:55:30.293Z,30.80
2017-11-29T01:58:04.399Z,20.57
2017-11-29T02:00:48.381Z,23.07
2017-11-29T02:03:22.166Z,25.43
2017-11-29T02:05:56.770Z,27.63
2017-11-29T02:08:31.793Z,26.30
2017-11-29T02:11:06.317Z,22.80
2017-11-29T02:13:40.231Z,22.33
2017-11-29T02:16:14.575Z,14.10
2017-11-29T02:18:50.411Z,23.40
2017-11-29T02:21:25.159Z,22.60
2017-11-29T02:23:59.506Z,23.50
2017-11-29T02:26:33.351Z,20.90
2017-11-29T02:29:08.180Z,24.30
2017-11-29T02:31:42.280Z,18.07
2017-11-29T02:34:17.397Z,19.63
2017-11-29T02:36:52.277Z,28.50
2017-11-29T02:39:27.215Z,24.53
2017-11-29T02:42:13.163Z,17.83
2017-11-29T02:44:47.826Z,22.40
2017-11-29T02:47:23.104Z,18.70
2017-11-29T02:49:57.843Z,20.37
2017-11-29T02:52:32.927Z,21.90
2017-11-29T02:55:06.944Z,20.67
2017-11-29T02:57:40.828Z,24.93
2017-11-29T03:00:14.526Z,21.50
2017-11-29T03:02:49.067Z,20.63
2017-11-29T03:05:22.791Z,18.40
2017-11-29T03:07:56.956Z,19.73
2017-11-29T03:10:32.390Z,18.80
2017-11-29T03:13:07.056Z,18.70
2017-11-29T03:15:41.614Z,21.37
2017-11-29T03:18:16.108Z,17.33
2017-11-29T03:20:50.110Z,21.87
2017-11-29T03:23:25.764Z,24.20
2017-11-29T03:26:00.692Z,23.37
2017-11-29T03:28:35.839Z,15.30
2017-11-29T03:31:10.540Z,20.93
2017-11-29T03:33:45.272Z,26.43
2017-11-29T03:36:20.242Z,18.43
2017-11-29T03:38:54.022Z,21.83
2017-11-29T03:41:28.747Z,26.00
2017-11-29T03:44:03.575Z,24.30
2017-11-29T03:46:37.798Z,23.30
2017-11-29T03:49:11.880Z,24.30
2017-11-29T03:51:46.899Z,25.57
2017-11-29T03:54:22.158Z,19.60
2017-11-29T03:56:56.791Z,22.60
2017-11-29T03:59:31.446Z,22.40
2017-11-29T04:02:06.123Z,26.93
2017-11-29T04:04:41.200Z,22.70
2017-11-29T04:07:16.220Z,22.27
2017-11-29T04:09:50.753Z,25.73
2017-11-29T04:12:25.651Z,31.37
2017-11-29T04:14:59.785Z,27.43
2017-11-29T04:17:35.051Z,17.60
2017-11-29T04:20:09.638Z,24.20
2017-11-29T04:22:44.766Z,24.10
2017-11-29T04:25:19.011Z,21.00
2017-11-29T04:27:53.348Z,19.50
2017-11-29T04:30:28.130Z,17.73
2017-11-29T04:33:03.733Z,18.73
2017-11-29T04:35:37.490Z,22.67
2017-11-29T04:38:11.710Z,18.50
2017-11-29T04:40:46.252Z,21.43
2017-11-29T04:43:21.263Z,20.53
2017-11-29T04:45:57.237Z,25.37
2017-11-29T04:48:32.235Z,18.03
2017-11-29T04:51:06.790Z,19.90
2017-11-29T04:53:40.946Z,22.23
2017-11-29T04:56:15.539Z,20.63
2017-11-29T04:58:50.339Z,19.50
2017-11-29T05:01:25.135Z,19.17
2017-11-29T05:03:59.996Z,19.27
2017-11-29T05:06:34.944Z,16.63
2017-11-29T05:09:09.364Z,19.60
2017-11-29T05:11:43.826Z,16.40
2017-11-29T05:14:18.507Z,17.53
2017-11-29T05:16:53.698Z,20.90
2017-11-29T05:19:27.731Z,19.37
2017-11-29T05:22:03.063Z,19.10
2017-11-29T05:24:37.539Z,23.03
2017-11-29T05:27:12.345Z,24.13
2017-11-29T05:29:47.126Z,21.27
2017-11-29T05:32:22.013Z,16.87
2017-11-29T05:34:56.451Z,20.17
2017-11-29T05:37:31.543Z,19.20
2017-11-29T05:40:05.997Z,17.20
2017-11-29T05:42:40.399Z,20.30
2017-11-29T05:45:14.827Z,18.60
2017-11-29T05:47:48.728Z,25.30
2017-11-29T05:50:24.187Z,17.20
2017-11-29T05:52:58.275Z,15.80
2017-11-29T05:55:32.200Z,27.10
2017-11-29T05:58:05.923Z,22.83
2017-11-29T06:00:40.043Z,18.97
2017-11-29T06:03:14.314Z,21.30
2017-11-29T06:05:48.139Z,22.57
2017-11-29T06:08:22.679Z,14.20
2017-11-29T06:10:57.474Z,20.47
2017-11-29T06:13:31.918Z,20.53
2017-11-29T06:16:06.860Z,25.43
2017-11-29T06:18:40.977Z,19.30
2017-11-29T06:21:15.204Z,19.47
2017-11-29T06:23:49.699Z,19.87
2017-11-29T06:26:24.509Z,27.20
2017-11-29T06:28:58.970Z,20.77
2017-11-29T06:31:34.092Z,21.60
2017-11-29T06:34:08.040Z,23.23
2017-11-29T06:36:42.612Z,25.87
2017-11-29T06:39:16.478Z,33.73
2017-11-29T06:41:51.045Z,30.03
2017-11-29T06:44:25.680Z,27.07
2017-11-29T06:47:00.148Z,21.70
2017-11-29T06:49:34.619Z,22.50
2017-11-29T06:52:09.743Z,20.80
2017-11-29T06:54:44.066Z,22.43
2017-11-29T06:57:19.817Z,22.73
2017-11-29T06:59:54.641Z,21.10
2017-11-29T07:02:29.578Z,25.03
2017-11-29T07:05:04.102Z,19.47
2017-11-29T07:07:38.251Z,20.00
2017-11-29T07:10:12.018Z,22.10
2017-11-29T07:12:46.726Z,18.40
2017-11-29T07:15:20.677Z,20.90
2017-11-29T07:17:54.879Z,24.87
2017-11-29T07:20:29.595Z,20.23
2017-11-29T07:23:04.581Z,21.33
2017-11-29T07:25:39.078Z,23.30
2017-11-29T07:28:13.439Z,33.40
2017-11-29T07:30:48.027Z,25.87
2017-11-29T07:33:23.818Z,26.87
2017-11-29T07:35:58.062Z,19.07
2017-11-29T07:38:32.455Z,25.33
2017-11-29T07:41:06.900Z,24.13
2017-11-29T07:43:42.044Z,23.93
2017-11-29T07:46:16.148Z,23.70
2017-11-29T07:48:51.172Z,22.80
2017-11-29T07:51:26.156Z,16.67
2017-11-29T07:54:01.153Z,12.87
2017-11-29T07:56:37.121Z,18.47
2017-11-29T07:59:11.642Z,17.97
2017-11-29T08:01:47.624Z,21.17
2017-11-29T08:04:22.698Z,18.53
2017-11-29T08:06:57.623Z,17.60
2017-11-29T08:09:32.154Z,19.73
2017-11-29T08:12:06.383Z,17.50
2017-11-29T08:14:40.915Z,16.83
2017-11-29T08:17:15.451Z,15.43
2017-11-29T08:19:50.214Z,23.40
2017-11-29T08:22:25.475Z,20.20
2017-11-29T08:25:00.268Z,14.40
2017-11-29T08:27:35.077Z,17.57
2017-11-29T08:30:10.263Z,14.77
2017-11-29T08:32:57.005Z,17.57
2017-11-29T08:35:32.449Z,19.80
2017-11-29T08:38:06.475Z,47.07
2017-11-29T08:40:41.076Z,20.10
2017-11-29T08:43:16.523Z,23.70
2017-11-29T08:45:50.462Z,20.17
2017-11-29T08:48:24.342Z,16.57
2017-11-29T08:50:58.555Z,15.17
2017-11-29T08:53:32.889Z,16.70
2017-11-29T08:56:07.121Z,17.60
2017-11-29T08:58:41.831Z,15.30
2017-11-29T09:01:17.064Z,11.40
2017-11-29T09:03:52.403Z,16.67
2017-11-29T09:06:26.291Z,16.53
2017-11-29T09:09:00.931Z,18.27
2017-11-29T09:11:35.661Z,14.70
2017-11-29T09:14:10.393Z,15.23
2017-11-29T09:16:44.374Z,18.90
2017-11-29T09:19:18.263Z,12.10
2017-11-29T09:21:52.200Z,15.97
2017-11-29T09:24:25.944Z,17.27
2017-11-29T09:27:02.278Z,18.33
2017-11-29T09:29:36.258Z,17.07
2017-11-29T09:32:10.687Z,15.77
2017-11-29T09:34:44.685Z,12.73
2017-11-29T09:37:19.242Z,14.10
2017-11-29T09:39:53.095Z,15.93
2017-11-29T09:42:26.950Z,16.80
2017-11-29T09:45:00.790Z,12.83
2017-11-29T09:47:34.526Z,13.60
2017-11-29T09:50:08.312Z,11.10
2017-11-29T09:52:41.980Z,16.73
2017-11-29T09:55:16.000Z,10.70
2017-11-29T09:57:49.795Z,13.97
2017-11-29T10:00:23.615Z,11.47
2017-11-29T10:02:57.386Z,10.77
2017-11-29T10:05:31.060Z,11.57
2017-11-29T10:08:04.920Z,12.07
2017-11-29T10:10:38.664Z,13.57
2017-11-29T10:13:12.464Z,17.63
2017-11-29T10:15:47.140Z,14.73
2017-11-29T10:18:21.068Z,12.50
2017-11-29T10:20:55.520Z,16.13
2017-11-29T10:23:29.692Z,11.57
2017-11-29T10:26:03.444Z,14.77
2017-11-29T10:28:37.365Z,15.93
2017-11-29T10:31:11.935Z,10.60
2017-11-29T10:33:46.584Z,13.90
2017-11-29T10:36:21.488Z,13.60
2017-11-29T10:38:55.478Z,12.83
2017-11-29T10:41:29.525Z,17.30
2017-11-29T10:44:04.094Z,12.00
2017-11-29T10:46:38.145Z,17.33
2017-11-29T10:49:12.759Z,11.50
2017-11-29T10:51:46.775Z,13.33
2017-11-29T10:54:20.529Z,13.70
2017-11-29T10:56:54.493Z,16.83
2017-11-29T10:59:28.065Z,19.40
2017-11-29T11:02:02.734Z,13.33
2017-11-29T11:04:36.835Z,14.60
2017-11-29T11:07:11.345Z,17.83
2017-11-29T11:09:45.910Z,20.33
2017-11-29T11:12:21.243Z,12.50
2017-11-29T11:14:54.985Z,12.67
2017-11-29T11:17:28.905Z,15.27
2017-11-29T11:20:02.799Z,9.90
2017-11-29T11:22:36.737Z,8.07
2017-11-29T11:25:10.706Z,10.23
2017-11-29T11:27:44.684Z,13.20
2017-11-29T11:30:20.180Z,16.33
2017-11-29T11:32:54.529Z,9.23
2017-11-29T11:35:28.444Z,11.27
2017-11-29T11:38:03.016Z,19.43
2017-11-29T11:40:38.199Z,11.70
2017-11-29T11:43:12.908Z,10.90
2017-11-29T11:45:47.626Z,8.63
2017-11-29T11:48:22.280Z,13.23
2017-11-29T11:50:56.147Z,11.20
2017-11-29T11:53:29.886Z,16.70
2017-11-29T11:56:03.618Z,20.23
2017-11-29T11:58:37.352Z,15.57
2017-11-29T12:01:11.931Z,12.37
2017-11-29T12:03:45.800Z,13.37
2017-11-29T12:06:19.488Z,9.20
2017-11-29T12:08:54.166Z,9.63
2017-11-29T12:11:29.011Z,9.67
2017-11-29T12:14:03.261Z,12.00
2017-11-29T12:16:37.100Z,10.17
2017-11-29T12:19:11.939Z,11.23
2017-11-29T12:21:46.288Z,11.37
2017-11-29T12:24:19.939Z,9.50
2017-11-29T12:26:54.482Z,13.40
2017-11-29T12:29:28.445Z,11.00
2017-11-29T12:32:02.215Z,10.00
2017-11-29T12:34:36.848Z,14.13
2017-11-29T12:37:10.931Z,14.37
2017-11-29T12:39:44.632Z,10.87
2017-11-29T12:42:19.631Z,18.83
2017-11-29T12:44:53.772Z,7.80
2017-11-29T12:47:28.368Z,18.20
2017-11-29T12:50:14.443Z,13.73
2017-11-29T12:52:48.054Z,14.83
2017-11-29T12:55:22.836Z,18.23
2017-11-29T12:57:56.861Z,8.00
2017-11-29T13:00:31.647Z,11.37
2017-11-29T13:03:05.575Z,10.27
2017-11-29T13:05:39.396Z,13.13
2017-11-29T13:08:13.289Z,17.90
2017-11-29T13:10:46.992Z,9.03
2017-11-29T13:13:21.542Z,8.87
2017-11-29T13:15:56.050Z,16.20
2017-11-29T13:18:30.821Z,9.77
2017-11-29T13:21:05.491Z,14.03
2017-11-29T13:23:39.554Z,8.80
2017-11-29T13:26:14.298Z,8.67
2017-11-29T13:28:49.208Z,13.10
2017-11-29T13:31:23.992Z,12.20
2017-11-29T13:33:58.721Z,11.87
2017-11-29T13:36:33.106Z,8.87
2017-11-29T13:39:07.721Z,15.30
2017-11-29T13:41:42.630Z,13.50
2017-11-29T13:44:17.361Z,11.00
2017-11-29T13:46:51.726Z,10.80
2017-11-29T13:49:25.836Z,9.23
2017-11-29T13:52:00.331Z,14.60
2017-11-29T13:54:34.623Z,13.90
2017-11-29T13:57:09.737Z,13.43
2017-11-29T13:59:44.253Z,10.43
2017-11-29T14:02:18.634Z,9.63
2017-11-29T14:04:53.089Z,9.10
2017-11-29T14:07:27.711Z,10.90
2017-11-29T14:10:04.106Z,23.23
2017-11-29T14:12:39.197Z,14.20
2017-11-29T14:15:12.972Z,13.93
2017-11-29T14:17:47.954Z,9.90
2017-11-29T14:20:22.871Z,19.20
2017-11-29T14:22:58.079Z,10.60
2017-11-29T14:25:32.272Z,13.00
2017-11-29T14:28:07.466Z,13.37
2017-11-29T14:30:41.911Z,13.70
2017-11-29T14:33:16.163Z,13.40
2017-11-29T14:35:49.977Z,9.97
2017-11-29T14:38:24.083Z,14.10
2017-11-29T14:40:57.774Z,12.27
2017-11-29T14:43:32.152Z,13.00
2017-11-29T14:46:06.720Z,9.77
2017-11-29T14:48:41.615Z,16.97
2017-11-29T14:51:16.705Z,14.80
2017-11-29T14:53:51.607Z,20.37
2017-11-29T14:56:27.091Z,12.23
2017-11-29T14:59:02.550Z,11.20
2017-11-29T15:01:37.497Z,15.43
2017-11-29T15:04:11.878Z,13.07
2017-11-29T15:06:46.441Z,18.47
2017-11-29T15:09:21.382Z,12.93
2017-11-29T15:11:56.499Z,15.03
2017-11-29T15:14:30.459Z,20.40
2017-11-29T15:17:04.246Z,19.37
2017-11-29T15:19:39.504Z,14.27
2017-11-29T15:22:15.331Z,14.93
2017-11-29T15:24:49.559Z,20.03
2017-11-29T15:27:24.973Z,15.27
2017-11-29T15:29:59.074Z,18.47
2017-11-29T15:32:32.892Z,14.13
2017-11-29T15:35:06.595Z,15.77
2017-11-29T15:37:40.410Z,13.13
2017-11-29T15:40:14.398Z,16.77
2017-11-29T15:42:49.001Z,14.80
2017-11-29T15:45:22.719Z,19.20
2017-11-29T15:47:56.678Z,27.03
2017-11-29T15:50:31.631Z,16.53
2017-11-29T15:53:05.943Z,12.17
2017-11-29T15:55:39.795Z,23.63
2017-11-29T15:58:13.597Z,17.97
2017-11-29T16:00:47.414Z,16.57
2017-11-29T16:03:21.828Z,24.00
2017-11-29T16:05:55.788Z,22.93
2017-11-29T16:08:30.373Z,27.07
2017-11-29T16:11:04.600Z,25.17
2017-11-29T16:13:38.409Z,16.43
2017-11-29T16:16:12.181Z,29.13
2017-11-29T16:18:46.032Z,19.03
2017-11-29T16:21:20.616Z,20.83
2017-11-29T16:23:55.483Z,14.53
2017-11-29T16:26:29.908Z,21.23
2017-11-29T16:29:03.707Z,16.47
2017-11-29T16:31:37.622Z,20.23
2017-11-29T16:34:11.280Z,17.80
2017-11-29T16:36:45.705Z,20.40
2017-11-29T16:39:19.829Z,18.13
2017-11-29T16:41:53.454Z,21.70
2017-11-29T16:44:27.207Z,24.90
2017-11-29T16:47:01.732Z,19.97
2017-11-29T16:49:35.553Z,25.53
2017-11-29T16:52:10.264Z,20.10
2017-11-29T16:54:44.250Z,20.07
2017-11-29T16:57:18.173Z,15.83
2017-11-29T16:59:52.216Z,17.77
2017-11-29T17:02:26.727Z,19.77
2017-11-29T17:05:00.870Z,21.80
2017-11-29T17:07:35.251Z,28.13
2017-11-29T17:10:09.275Z,30.40
2017-11-29T17:12:43.377Z,32.77
2017-11-29T17:15:18.084Z,37.77
2017-11-29T17:17:52.058Z,38.80
2017-11-29T17:20:26.098Z,42.87
2017-11-29T17:23:00.071Z,42.50
2017-11-29T17:25:34.832Z,41.10
2017-11-29T17:28:09.186Z,42.47
2017-11-29T17:30:43.636Z,47.30
2017-11-29T17:33:18.279Z,41.43
2017-11-29T17:35:52.567Z,45.57
2017-11-29T17:38:27.826Z,47.00
2017-11-29T17:41:02.363Z,43.83
2017-11-29T17:43:37.903Z,52.00
2017-11-29T17:46:12.585Z,46.47
2017-11-29T17:48:47.713Z,42.57
2017-11-29T17:51:21.959Z,54.10
2017-11-29T17:53:56.522Z,43.13
2017-11-29T17:56:32.016Z,47.17
2017-11-29T17:59:08.060Z,49.80
2017-11-29T18:01:42.082Z,42.13
2017-11-29T18:04:15.894Z,51.13
2017-11-29T18:06:50.599Z,54.53
2017-11-29T18:09:24.768Z,57.43
2017-11-29T18:12:01.033Z,47.70
2017-11-29T18:14:35.309Z,51.10
2017-11-29T18:17:11.354Z,60.50
2017-11-29T18:19:46.035Z,54.77
2017-11-29T18:22:20.878Z,56.57
2017-11-29T18:24:56.459Z,68.60
2017-11-29T18:27:30.723Z,53.30
2017-11-29T18:30:05.398Z,57.87
2017-11-29T18:32:40.556Z,62.17
2017-11-29T18:35:15.596Z,58.27
2017-11-29T18:37:50.321Z,62.73
2017-11-29T18:40:25.245Z,78.57
2017-11-29T18:42:59.672Z,67.23
2017-11-29T18:45:34.994Z,62.00
2017-11-29T18:48:09.698Z,65.83
2017-11-29T18:50:43.639Z,60.13
2017-11-29T18:53:18.634Z,52.43
2017-11-29T18:55:52.458Z,65.80
2017-11-29T18:58:26.501Z,68.47
2017-11-29T19:01:01.403Z,57.80
2017-11-29T19:03:36.543Z,58.87
2017-11-29T19:06:11.361Z,65.57
2017-11-29T19:08:45.955Z,60.67
2017-11-29T19:11:21.227Z,65.10
2017-11-29T19:13:56.204Z,64.93
2017-11-29T19:16:30.747Z,63.07
2017-11-29T19:19:05.407Z,62.90
2017-11-29T19:21:40.252Z,58.67
2017-11-29T19:24:15.538Z,67.97
2017-11-29T19:26:49.875Z,65.67
2017-11-29T19:29:24.838Z,68.57
2017-11-29T19:31:59.776Z,62.30
2017-11-29T19:34:35.102Z,65.90
2017-11-29T19:37:09.930Z,60.87
2017-11-29T19:39:44.416Z,62.23
2017-11-29T19:42:19.618Z,62.33
2017-11-29T19:47:34.805Z,70.77
2017-11-29T19:50:10.051Z,65.27
2017-11-29T19:52:44.319Z,61.67
2017-11-29T19:55:18.209Z,72.77
2017-11-29T19:57:52.823Z,63.03
2017-11-29T20:00:27.839Z,73.17
2017-11-29T20:03:03.172Z,65.83
2017-11-29T20:05:37.759Z,69.03
2017-11-29T20:08:12.165Z,68.53
2017-11-29T20:10:48.163Z,63.73
2017-11-29T20:13:22.826Z,61.77
2017-11-29T20:15:57.733Z,66.03
2017-11-29T20:18:32.836Z,66.13
2017-11-29T20:21:07.392Z,59.53
2017-11-29T20:23:42.110Z,69.97
2017-11-29T20:26:17.233Z,75.07
2017-11-29T20:28:51.715Z,60.10
2017-11-29T20:31:26.760Z,52.10
2017-11-29T20:34:00.992Z,57.33
2017-11-29T20:36:36.384Z,54.40
2017-11-29T20:39:10.408Z,65.60
2017-11-29T20:41:46.457Z,55.53
2017-11-29T20:44:21.654Z,57.40
2017-11-29T20:46:56.398Z,65.90
2017-11-29T20:49:31.257Z,57.90
2017-11-29T20:52:17.422Z,57.30
2017-11-29T20:54:51.975Z,63.47
2017-11-29T20:57:26.044Z,63.33
2017-11-29T21:00:00.006Z,56.73
2017-11-29T21:02:34.886Z,55.80
2017-11-29T21:05:09.993Z,55.50
2017-11-29T21:07:44.067Z,60.60
2017-11-29T21:10:19.394Z,64.97
2017-11-29T21:12:53.445Z,55.53
2017-11-29T21:15:28.637Z,55.27
2017-11-29T21:18:03.133Z,58.13
2017-11-29T21:20:38.183Z,49.53
2017-11-29T21:23:12.534Z,79.87
2017-11-29T21:25:47.335Z,64.43
2017-11-29T21:28:23.081Z,59.47
2017-11-29T21:30:57.656Z,53.20
2017-11-29T21:33:31.578Z,57.73
2017-11-29T21:36:06.332Z,60.10
2017-11-29T21:38:40.875Z,58.30
2017-11-29T21:41:15.657Z,67.70
2017-11-29T21:43:50.543Z,55.83
2017-11-29T21:46:25.060Z,49.80
2017-11-29T21:49:00.179Z,52.37
2017-11-29T21:51:34.330Z,57.13
2017-11-29T21:54:09.523Z,61.33
2017-11-29T21:56:43.656Z,57.33
2017-11-29T21:59:17.702Z,51.00
2017-11-29T22:01:52.162Z,49.63
2017-11-29T22:04:26.239Z,53.93
2017-11-29T22:07:01.212Z,58.50
2017-11-29T22:09:34.826Z,47.17
2017-11-29T22:12:09.469Z,54.20
2017-11-29T22:14:43.872Z,56.03
2017-11-29T22:17:18.595Z,63.67
2017-11-29T22:19:53.022Z,48.90
2017-11-29T22:22:27.039Z,64.97
2017-11-29T22:25:00.940Z,59.93
2017-11-29T22:27:35.528Z,61.83
2017-11-29T22:30:10.088Z,57.50
2017-11-29T22:32:44.717Z,56.20
2017-11-29T22:35:19.570Z,56.53
2017-11-29T22:37:53.762Z,57.80
2017-11-29T22:40:27.600Z,53.80
2017-11-29T22:43:01.356Z,57.80
2017-11-29T22:45:36.101Z,54.93
2017-11-29T22:48:10.726Z,62.53
2017-11-29T22:50:45.191Z,60.90
2017-11-29T22:53:19.773Z,55.07
2017-11-29T22:55:54.005Z,55.43
2017-11-29T22:58:29.296Z,55.70
2017-11-29T23:01:03.526Z,62.80
2017-11-29T23:03:37.971Z,56.40
2017-11-29T23:06:12.773Z,57.53
2017-11-29T23:08:47.612Z,55.33
2017-11-29T23:11:21.741Z,62.77
2017-11-29T23:13:57.024Z,53.93
2017-11-29T23:16:31.999Z,56.07
2017-11-29T23:19:06.379Z,55.70
2017-11-29T23:21:41.263Z,59.43
2017-11-29T23:24:15.901Z,60.27
2017-11-29T23:26:50.399Z,50.83
2017-11-29T23:29:24.280Z,56.57
2017-11-29T23:31:58.115Z,53.40
2017-11-29T23:34:32.324Z,54.70
2017-11-29T23:37:06.750Z,52.87
2017-11-29T23:39:41.471Z,58.70
2017-11-29T23:42:16.750Z,50.67
2017-11-29T23:44:50.951Z,50.07
2017-11-29T23:47:25.288Z,51.20
2017-11-29T23:49:59.135Z,49.57
2017-11-29T23:52:32.974Z,47.23
2017-11-29T23:55:06.647Z,53.87
2017-11-29T23:57:41.211Z,52.47
